Time;durP1;ratioP1;P1;durP2;ratioP2;P2;SDS_P1;SDS_P2;PMS_P1;PMS_P2;Temp;Humidity;BMP_temperature;BMP_pressure;BME280_temperature;BME280_humidity;BME280_pressure;Samples;Min_cycle;Max_cycle;Signal;HPM_P1;HPM_P2
2021/05/23 00:01:30;;;;;;;8.63;5.10;;;;;;;15.99;58.05;99149.22;1737733;82;21066;-74
2021/05/23 00:03:59;;;;;;;8.88;5.42;;;;;;;16.05;58.31;99159.26;1737394;82;21085;-74
2021/05/23 00:06:26;;;;;;;6.53;5.03;;;;;;;16.00;58.79;99153.56;1725521;82;21570;-74
2021/05/23 00:08:53;;;;;;;8.08;4.58;;;;;;;15.96;59.57;99160.17;1743351;82;21562;-75
2021/05/23 00:11:20;;;;;;;7.00;4.15;;;;;;;15.91;59.95;99159.81;1746861;82;21888;-74
2021/05/23 00:13:48;;;;;;;6.47;4.08;;;;;;;15.84;60.82;99163.13;1708356;83;21545;-74
2021/05/23 00:16:18;;;;;;;5.28;3.30;;;;;;;15.79;61.56;99173.88;1672683;85;21035;-74
2021/05/23 00:18:50;;;;;;;5.72;3.20;;;;;;;15.82;61.98;99168.25;1676356;85;21067;-75
2021/05/23 00:21:18;;;;;;;4.05;3.12;;;;;;;15.74;62.01;99153.00;1670137;86;21100;-74
2021/05/23 00:23:44;;;;;;;4.92;3.40;;;;;;;15.56;63.43;99157.04;1676360;85;21654;-73
2021/05/23 00:26:13;;;;;;;5.35;3.62;;;;;;;15.43;64.31;99149.45;1720249;82;21630;-73
2021/05/23 00:28:41;;;;;;;5.05;3.60;;;;;;;15.35;65.25;99149.39;1709186;83;21074;-74
2021/05/23 00:31:07;;;;;;;4.87;3.40;;;;;;;15.27;65.68;99157.30;1674821;85;21111;-73
2021/05/23 00:33:33;;;;;;;4.37;2.92;;;;;;;15.30;65.52;99151.17;1668111;85;21631;-73
2021/05/23 00:36:00;;;;;;;4.20;3.10;;;;;;;15.29;65.75;99155.33;1695252;84;21079;-73
2021/05/23 00:38:27;;;;;;;3.55;2.80;;;;;;;15.10;66.54;99149.15;1696802;84;21099;-73
2021/05/23 00:40:53;;;;;;;3.47;2.83;;;;;;;14.92;67.21;99149.14;1666388;84;21078;-73
2021/05/23 00:43:20;;;;;;;5.15;3.05;;;;;;;14.81;67.82;99152.88;1662499;84;21112;-73
2021/05/23 00:45:48;;;;;;;5.72;2.90;;;;;;;14.77;68.26;99154.16;1664897;84;21118;-73
2021/05/23 00:48:15;;;;;;;5.08;3.00;;;;;;;14.82;68.46;99155.03;1695599;84;21050;-74
2021/05/23 00:50:41;;;;;;;5.47;3.45;;;;;;;14.82;68.79;99148.37;1686180;84;21062;-74
2021/05/23 00:53:09;;;;;;;4.10;3.20;;;;;;;14.69;69.34;99160.71;1702989;84;21046;-74
2021/05/23 00:55:36;;;;;;;5.85;3.12;;;;;;;14.52;69.92;99160.98;1677284;84;21056;-74
2021/05/23 00:58:02;;;;;;;4.15;2.90;;;;;;;14.46;70.47;99165.06;1667111;84;21593;-74
2021/05/23 01:00:48;;;;;;;4.40;3.30;;;;;;;14.51;70.64;99169.95;1702230;84;21094;-73
2021/05/23 01:03:35;;;;;;;5.47;3.40;;;;;;;14.46;71.08;99168.23;1703102;84;21031;-74
2021/05/23 01:06:05;;;;;;;2.87;2.58;;;;;;;14.36;71.62;99164.27;1707198;84;21575;-73
2021/05/23 01:08:33;;;;;;;6.87;2.92;;;;;;;14.39;71.85;99165.33;1664097;84;21069;-73
2021/05/23 01:11:10;;;;;;;6.30;3.00;;;;;;;14.47;71.91;99165.41;1682065;85;22240;-74
2021/05/23 01:13:48;;;;;;;3.70;2.77;;;;;;;14.42;72.16;99159.22;1688811;85;21072;-73
2021/05/23 01:16:25;;;;;;;3.58;2.90;;;;;;;14.33;72.66;99165.91;1698210;83;21048;-74
2021/05/23 01:19:00;;;;;;;3.40;2.52;;;;;;;14.24;73.05;99169.77;1719275;83;21072;-74
2021/05/23 01:21:31;;;;;;;4.10;2.77;;;;;;;14.31;73.21;99177.17;1726422;83;21128;-74
2021/05/23 01:24:00;;;;;;;3.95;3.02;;;;;;;14.42;73.17;99166.34;1693298;83;21060;-73
2021/05/23 01:26:38;;;;;;;3.77;2.70;;;;;;;14.45;73.19;99174.05;1696545;83;21066;-73
2021/05/23 01:29:09;;;;;;;4.47;2.90;;;;;;;14.40;73.44;99175.81;1723021;83;21037;-74
2021/05/23 01:31:37;;;;;;;4.17;2.95;;;;;;;14.32;73.63;99180.18;1727446;83;21041;-74
2021/05/23 01:34:05;;;;;;;3.52;2.58;;;;;;;14.24;73.95;99180.41;1739433;81;21113;-74
2021/05/23 01:36:36;;;;;;;4.12;2.58;;;;;;;14.31;74.01;99185.15;1700729;82;21069;-75
2021/05/23 01:39:06;;;;;;;4.10;3.10;;;;;;;14.45;73.63;99192.67;1720304;82;21561;-75
2021/05/23 01:41:32;;;;;;;3.35;2.47;;;;;;;14.45;73.76;99193.14;1717222;83;21612;-75
2021/05/23 01:43:59;;;;;;;3.70;3.00;;;;;;;14.41;74.06;99187.28;1717229;83;21093;-73
2021/05/23 01:46:26;;;;;;;3.27;2.33;;;;;;;14.37;74.20;99192.55;1732034;82;21042;-73
2021/05/23 01:48:52;;;;;;;3.40;2.52;;;;;;;14.38;74.18;99193.73;1732321;82;20998;-73
2021/05/23 01:51:19;;;;;;;3.67;3.00;;;;;;;14.45;74.14;99198.00;1744881;82;21041;-73
2021/05/23 01:53:45;;;;;;;4.40;2.75;;;;;;;14.42;74.39;99199.59;1737050;82;21073;-74
2021/05/23 01:56:12;;;;;;;5.00;3.08;;;;;;;14.30;74.65;99190.14;1716830;83;21632;-74
2021/05/23 01:58:39;;;;;;;4.20;2.72;;;;;;;14.17;75.07;99197.95;1719890;82;21069;-73
2021/05/23 02:01:06;;;;;;;3.80;2.40;;;;;;;14.11;75.24;99194.53;1725947;82;21561;-73
2021/05/23 02:03:32;;;;;;;4.50;2.98;;;;;;;14.12;75.26;99200.20;1718884;82;21026;-73
2021/05/23 02:06:02;;;;;;;6.97;3.20;;;;;;;14.17;75.25;99203.27;1699940;82;21368;-73
2021/05/23 02:08:29;;;;;;;4.60;3.30;;;;;;;14.22;75.29;99210.79;1743454;82;21601;-74
2021/05/23 02:11:02;;;;;;;4.37;3.50;;;;;;;14.20;75.45;99205.63;1744946;82;21573;-73
2021/05/23 02:13:28;;;;;;;4.93;3.30;;;;;;;14.19;75.58;99209.77;1727335;82;21017;-73
2021/05/23 02:15:55;;;;;;;4.75;3.30;;;;;;;14.24;76.79;99218.97;1718141;82;21001;-73
2021/05/23 02:18:21;;;;;;;4.17;3.10;;;;;;;14.41;76.97;99216.53;1718324;82;21049;-74
2021/05/23 02:20:48;;;;;;;4.45;3.55;;;;;;;14.45;77.29;99218.42;1742760;82;21055;-74
2021/05/23 02:23:18;;;;;;;6.33;3.47;;;;;;;14.43;77.60;99229.21;1743896;82;21029;-74
2021/05/23 02:25:44;;;;;;;5.40;3.42;;;;;;;14.42;77.93;99228.86;1724485;82;21088;-74
2021/05/23 02:28:13;;;;;;;5.08;3.40;;;;;;;14.58;77.69;99230.41;1735806;82;21077;-74
2021/05/23 02:30:46;;;;;;;5.25;3.52;;;;;;;14.62;77.65;99236.28;1723081;82;21061;-74
2021/05/23 02:33:14;;;;;;;4.57;3.30;;;;;;;14.58;77.83;99235.73;1728042;82;21638;-74
2021/05/23 02:35:44;;;;;;;4.40;3.77;;;;;;;14.53;77.93;99242.49;1737302;82;21384;-74
2021/05/23 02:38:11;;;;;;;6.25;3.50;;;;;;;14.63;77.70;99234.45;1719419;82;21007;-75
2021/05/23 02:40:38;;;;;;;5.95;4.03;;;;;;;14.68;77.48;99242.86;1741431;82;21077;-75
2021/05/23 02:43:06;;;;;;;4.15;3.70;;;;;;;14.62;77.49;99243.44;1742358;82;21029;-74
2021/05/23 02:45:35;;;;;;;5.03;3.40;;;;;;;14.55;77.43;99234.70;1713101;82;21049;-74
2021/05/23 02:48:04;;;;;;;4.20;3.30;;;;;;;14.56;77.24;99235.03;1711544;84;21094;-75
2021/05/23 02:50:35;;;;;;;4.62;3.60;;;;;;;14.67;76.81;99235.89;1728213;82;21070;-75
2021/05/23 02:53:02;;;;;;;5.33;3.40;;;;;;;14.64;76.57;99236.13;1739538;82;21525;-76
2021/05/23 02:55:29;;;;;;;4.72;3.20;;;;;;;14.57;76.42;99234.05;1737730;82;21648;-75
2021/05/23 02:57:57;;;;;;;4.28;3.35;;;;;;;14.60;76.08;99238.23;1733675;82;21011;-75
2021/05/23 03:00:24;;;;;;;3.67;3.22;;;;;;;14.73;75.60;99235.27;1743814;82;21042;-75
2021/05/23 03:02:50;;;;;;;3.85;3.45;;;;;;;14.66;75.52;99235.53;1750431;82;21122;-77
2021/05/23 03:05:20;;;;;;;5.10;3.35;;;;;;;14.56;75.62;99243.02;1743699;82;21603;-75
2021/05/23 03:07:49;;;;;;;3.40;2.95;;;;;;;14.49;75.63;99243.74;1744401;82;21043;-75
2021/05/23 03:10:19;;;;;;;4.50;3.02;;;;;;;14.45;75.59;99236.57;1743192;82;21018;-74
2021/05/23 03:12:48;;;;;;;5.03;3.25;;;;;;;14.55;75.35;99245.35;1742422;82;21578;-73
2021/05/23 03:15:19;;;;;;;6.37;3.42;;;;;;;14.57;75.34;99239.37;1741085;82;21063;-74
2021/05/23 03:17:46;;;;;;;4.90;3.25;;;;;;;14.52;75.48;99234.98;1741601;82;21025;-75
2021/05/23 03:20:15;;;;;;;3.20;2.72;;;;;;;14.52;75.54;99236.81;1739407;81;21232;-77
2021/05/23 03:22:41;;;;;;;4.87;3.17;;;;;;;14.66;75.23;99243.02;1745005;82;20975;-75
2021/05/23 03:25:10;;;;;;;5.08;3.40;;;;;;;14.75;75.01;99246.12;1711332;83;21031;-75
2021/05/23 03:27:36;;;;;;;6.30;3.35;;;;;;;14.75;75.09;99247.95;1744234;82;21046;-75
2021/05/23 03:30:06;;;;;;;5.83;3.37;;;;;;;14.73;75.11;99241.92;1739572;82;21042;-75
2021/05/23 03:32:32;;;;;;;8.10;3.50;;;;;;;14.78;74.95;99243.66;1745496;82;21090;-74
2021/05/23 03:34:58;;;;;;;6.75;3.47;;;;;;;14.88;74.62;99247.10;1725391;82;21021;-75
2021/05/23 03:37:25;;;;;;;4.17;3.60;;;;;;;14.87;74.67;99246.78;1745251;82;21045;-76
2021/05/23 03:39:51;;;;;;;4.67;3.33;;;;;;;14.88;74.76;99252.93;1728965;82;21579;-76
2021/05/23 03:42:17;;;;;;;4.50;3.30;;;;;;;14.97;74.45;99251.20;1716873;82;21001;-76
2021/05/23 03:44:44;;;;;;;4.28;3.35;;;;;;;15.13;74.14;99254.06;1731842;82;21040;-76
2021/05/23 03:47:10;;;;;;;4.40;3.50;;;;;;;15.20;73.93;99252.96;1720378;82;21049;-76
2021/05/23 03:49:38;;;;;;;3.62;3.30;;;;;;;15.24;73.73;99264.98;1729504;82;21049;-76
2021/05/23 03:52:08;;;;;;;4.00;3.12;;;;;;;15.29;73.65;99268.54;1719566;82;21354;-75
2021/05/23 03:54:35;;;;;;;4.30;2.95;;;;;;;15.39;73.47;99273.31;1701809;83;21037;-75
2021/05/23 03:57:02;;;;;;;4.78;3.50;;;;;;;15.66;72.92;99272.91;1717690;82;21005;-75
2021/05/23 03:59:28;;;;;;;6.67;3.95;;;;;;;15.80;72.21;99276.35;1746768;82;21041;-76
2021/05/23 04:01:54;;;;;;;5.28;4.03;;;;;;;15.82;71.70;99277.08;1725530;82;21092;-76
2021/05/23 04:04:22;;;;;;;4.97;3.58;;;;;;;15.80;71.53;99271.02;1734121;82;21061;-77
2021/05/23 04:06:52;;;;;;;5.42;3.47;;;;;;;15.79;71.64;99280.52;1740435;82;21364;-74
2021/05/23 04:09:19;;;;;;;3.90;3.30;;;;;;;16.00;71.74;99290.39;1742058;82;21077;-76
2021/05/23 04:11:49;;;;;;;5.00;3.72;;;;;;;16.64;70.88;99297.34;1720180;82;21648;-76
2021/05/23 04:14:14;;;;;;;6.80;4.28;;;;;;;17.09;69.78;99292.23;1738336;82;21072;-77
2021/05/23 04:16:43;;;;;;;5.42;4.60;;;;;;;17.26;68.33;99300.30;1728417;82;21045;-76
2021/05/23 04:19:10;;;;;;;8.18;4.62;;;;;;;17.29;67.45;99309.31;1718357;82;21049;-75
2021/05/23 04:21:37;;;;;;;5.80;4.15;;;;;;;17.33;67.14;99305.34;1734674;82;21107;-75
2021/05/23 04:24:03;;;;;;;5.25;3.90;;;;;;;17.46;66.55;99311.56;1745170;82;21002;-76
2021/05/23 04:26:30;;;;;;;5.17;3.70;;;;;;;17.63;66.03;99316.43;1731120;82;21062;-76
2021/05/23 04:28:56;;;;;;;4.92;4.00;;;;;;;17.62;65.61;99316.95;1700598;82;21080;-76
2021/05/23 04:31:23;;;;;;;6.45;4.28;;;;;;;17.56;65.63;99311.39;1721378;82;21077;-77
2021/05/23 04:33:49;;;;;;;4.90;3.90;;;;;;;17.52;65.62;99314.92;1727822;82;21149;-77
2021/05/23 04:36:16;;;;;;;3.83;3.30;;;;;;;17.58;65.61;99316.09;1738293;82;21106;-77
2021/05/23 04:38:43;;;;;;;5.55;3.50;;;;;;;17.67;65.31;99309.75;1742332;82;21578;-75
2021/05/23 04:41:13;;;;;;;4.40;3.27;;;;;;;17.83;64.63;99316.97;1736984;82;21586;-75
2021/05/23 04:43:37;;;;;;;5.62;3.12;;;;;;;17.89;64.44;99314.98;1737345;82;21026;-75
2021/05/23 04:48:26;;;;;;;3.95;3.05;;;;;;;18.13;63.29;99322.69;1817836;79;22715;-72
2021/05/23 04:50:52;;;;;;;3.55;3.02;;;;;;;18.23;62.52;99330.56;1761573;80;21065;-72
2021/05/23 04:53:19;;;;;;;3.08;2.77;;;;;;;18.52;61.97;99336.73;1760713;81;21084;-72
2021/05/23 04:55:45;;;;;;;2.90;2.42;;;;;;;19.07;61.29;99332.42;1788901;80;21025;-72
2021/05/23 04:58:12;;;;;;;4.00;2.47;;;;;;;19.70;59.51;99333.77;1718609;83;21062;-72
2021/05/23 05:00:40;;;;;;;3.60;2.50;;;;;;;20.22;57.62;99328.23;1718302;83;21113;-71
2021/05/23 05:03:06;;;;;;;5.10;2.50;;;;;;;20.70;56.00;99315.87;1719813;83;21630;-72
2021/05/23 05:05:33;;;;;;;3.47;2.60;;;;;;;21.16;54.81;99311.33;1720126;83;21039;-72
2021/05/23 05:07:59;;;;;;;2.30;2.10;;;;;;;21.48;53.61;99317.29;1731119;83;21032;-73
2021/05/23 05:10:26;;;;;;;3.27;2.42;;;;;;;21.71;52.17;99315.28;1719903;83;21055;-74
2021/05/23 05:12:52;;;;;;;3.17;2.30;;;;;;;21.86;51.62;99317.11;1717199;83;21098;-77
2021/05/23 05:15:18;;;;;;;8.75;5.10;;;;;;;22.04;51.11;99322.85;1715874;83;21030;-76
2021/05/23 05:17:46;;;;;;;4.30;3.25;;;;;;;22.22;50.39;99322.38;1707489;83;21114;-75
2021/05/23 05:20:12;;;;;;;5.92;3.45;;;;;;;22.35;49.51;99321.66;1698303;84;21031;-75
2021/05/23 05:22:40;;;;;;;3.47;2.60;;;;;;;22.53;49.21;99328.45;1701814;84;21085;-76
2021/05/23 05:25:07;;;;;;;5.78;3.40;;;;;;;22.64;49.01;99328.45;1700697;84;21114;-77
2021/05/23 05:27:34;;;;;;;4.72;2.62;;;;;;;22.79;48.80;99329.16;1691480;84;21083;-76
2021/05/23 05:30:00;;;;;;;4.50;2.55;;;;;;;22.97;48.05;99332.69;1694977;84;21550;-75
2021/05/23 05:32:26;;;;;;;5.03;3.12;;;;;;;22.99;47.78;99334.68;1694072;84;21038;-76
2021/05/23 05:34:52;;;;;;;6.70;3.80;;;;;;;23.02;47.69;99331.57;1700579;84;21043;-77
2021/05/23 05:37:19;;;;;;;4.20;2.58;;;;;;;23.08;47.59;99343.41;1695079;84;21105;-76
2021/05/23 05:39:47;;;;;;;4.37;2.95;;;;;;;23.09;47.19;99338.34;1688145;84;21076;-77
2021/05/23 05:42:13;;;;;;;10.28;6.45;;;;;;;22.94;47.82;99349.24;1689129;84;21069;-76
2021/05/23 05:44:40;;;;;;;4.65;3.17;;;;;;;22.78;47.48;99342.84;1696567;84;21568;-77
2021/05/23 05:47:06;;;;;;;3.65;2.47;;;;;;;22.71;47.33;99342.28;1681008;84;21079;-77
2021/05/23 05:49:36;;;;;;;4.60;2.40;;;;;;;22.68;47.34;99343.19;1675091;85;21070;-77
2021/05/23 05:52:01;;;;;;;7.78;3.27;;;;;;;22.74;48.14;99347.27;1736213;82;21005;-77
2021/05/23 05:54:27;;;;;;;4.40;2.67;;;;;;;22.80;47.54;99347.50;1735944;82;21141;-77
2021/05/23 05:56:54;;;;;;;6.53;2.83;;;;;;;22.68;47.42;99348.05;1738249;82;21057;-78
2021/05/23 05:59:20;;;;;;;3.47;2.40;;;;;;;22.42;46.66;99355.44;1738598;82;21110;-78
2021/05/23 06:01:46;;;;;;;3.65;2.65;;;;;;;22.12;46.70;99356.07;1741105;82;21095;-79
2021/05/23 06:04:13;;;;;;;4.55;2.20;;;;;;;21.94;47.41;99364.07;1740168;82;21035;-76
2021/05/23 06:06:40;;;;;;;5.35;2.90;;;;;;;21.73;47.83;99375.14;1728792;82;21350;-77
2021/05/23 06:09:06;;;;;;;3.17;2.22;;;;;;;21.56;48.35;99375.89;1740190;82;21041;-75
2021/05/23 06:11:32;;;;;;;2.75;2.20;;;;;;;21.50;48.33;99375.26;1737943;82;21031;-75
2021/05/23 06:13:58;;;;;;;3.65;2.72;;;;;;;21.27;48.25;99378.08;1742226;82;21051;-78
2021/05/23 06:16:25;;;;;;;5.05;2.65;;;;;;;21.29;48.47;99377.36;1739204;82;21105;-77
2021/05/23 06:18:52;;;;;;;4.62;2.42;;;;;;;21.51;48.94;99374.73;1729283;82;21082;-76
2021/05/23 06:21:18;;;;;;;3.30;2.10;;;;;;;21.72;47.69;99372.12;1741274;82;21076;-78
2021/05/23 06:23:46;;;;;;;5.83;3.70;;;;;;;21.78;48.08;99370.55;1739311;82;21112;-77
2021/05/23 06:26:14;;;;;;;4.45;3.27;;;;;;;21.69;47.34;99373.86;1737717;82;21049;-78
2021/05/23 06:28:41;;;;;;;4.10;2.65;;;;;;;21.62;47.19;99383.70;1740765;80;21030;-78
2021/05/23 06:31:09;;;;;;;3.20;2.40;;;;;;;21.54;47.45;99380.58;1749493;80;21074;-78
2021/05/23 06:33:36;;;;;;;3.42;2.62;;;;;;;21.41;48.33;99379.91;1729630;82;21047;-78
2021/05/23 06:36:03;;;;;;;3.67;2.30;;;;;;;21.32;48.62;99379.69;1741092;82;21027;-78
2021/05/23 06:38:30;;;;;;;3.40;2.10;;;;;;;21.25;48.41;99385.48;1737371;82;21082;-78
2021/05/23 06:40:56;;;;;;;2.92;2.52;;;;;;;21.13;48.60;99384.30;1736743;82;21042;-79
2021/05/23 06:43:22;;;;;;;5.67;2.85;;;;;;;21.16;49.18;99384.73;1728266;82;21073;-78
2021/05/23 06:45:48;;;;;;;2.40;2.20;;;;;;;21.35;48.79;99383.34;1724039;82;21055;-78
2021/05/23 06:48:15;;;;;;;4.05;2.80;;;;;;;21.51;48.22;99378.28;1740420;82;21114;-78
2021/05/23 06:50:41;;;;;;;3.33;2.35;;;;;;;21.44;48.26;99374.17;1740841;82;21071;-78
2021/05/23 06:53:08;;;;;;;3.65;2.60;;;;;;;21.37;47.42;99370.55;1741568;82;21022;-78
2021/05/23 06:55:34;;;;;;;4.25;2.30;;;;;;;21.25;48.14;99377.42;1725272;82;21052;-79
2021/05/23 06:58:01;;;;;;;3.70;2.60;;;;;;;21.41;48.35;99379.91;1713007;82;21600;-80
2021/05/23 07:00:27;;;;;;;5.70;2.70;;;;;;;21.64;47.52;99372.74;1740331;82;21549;-80
2021/05/23 07:02:53;;;;;;;3.90;2.20;;;;;;;21.69;47.71;99381.94;1738650;80;21378;-80
2021/05/23 07:05:20;;;;;;;3.35;2.17;;;;;;;21.64;45.79;99380.81;1721936;82;21066;-80
2021/05/23 07:07:47;;;;;;;3.92;2.30;;;;;;;21.59;46.64;99381.40;1704615;84;21071;-80
2021/05/23 07:10:15;;;;;;;3.10;2.33;;;;;;;21.67;47.24;99381.27;1686847;84;21039;-81
2021/05/23 07:12:42;;;;;;;3.10;2.50;;;;;;;21.83;47.00;99387.45;1687400;84;21090;-80
2021/05/23 07:15:09;;;;;;;5.10;2.75;;;;;;;21.96;46.73;99384.06;1694630;85;21043;-80
2021/05/23 07:17:35;;;;;;;4.05;2.83;;;;;;;22.01;46.48;99386.52;1694235;83;21158;-80
2021/05/23 07:20:03;;;;;;;6.22;3.60;;;;;;;21.95;46.27;99383.24;1690885;83;21055;-80
2021/05/23 07:22:30;;;;;;;3.70;2.60;;;;;;;22.00;46.15;99384.84;1684925;84;21059;-80
2021/05/23 07:24:56;;;;;;;3.50;2.58;;;;;;;22.13;46.41;99379.28;1684864;84;21609;-81
2021/05/23 07:27:23;;;;;;;4.05;2.30;;;;;;;22.27;46.22;99381.06;1682115;85;21115;-81
2021/05/23 07:29:49;;;;;;;3.40;2.58;;;;;;;22.31;45.04;99375.61;1691680;83;21034;-80
2021/05/23 07:32:16;;;;;;;3.77;2.40;;;;;;;22.25;44.96;99379.06;1698266;83;21016;-80
2021/05/23 07:34:42;;;;;;;3.50;2.45;;;;;;;22.19;44.96;99376.65;1693225;83;21074;-80
2021/05/23 07:37:09;;;;;;;2.60;1.80;;;;;;;22.19;44.64;99375.83;1697879;83;21073;-80
2021/05/23 07:39:35;;;;;;;3.40;2.20;;;;;;;22.23;44.59;99381.14;1698264;83;21078;-78
2021/05/23 07:42:02;;;;;;;3.60;2.10;;;;;;;22.07;43.42;99380.38;1688282;83;21129;-79
2021/05/23 07:44:29;;;;;;;3.87;2.40;;;;;;;22.07;43.94;99372.30;1684105;84;21049;-79
2021/05/23 07:46:55;;;;;;;4.97;2.60;;;;;;;22.23;44.72;99379.27;1692931;84;21058;-81
2021/05/23 07:49:21;;;;;;;2.52;2.17;;;;;;;22.40;44.16;99371.80;1695528;83;21051;-79
2021/05/23 07:51:47;;;;;;;3.55;2.20;;;;;;;22.34;43.74;99373.89;1725579;83;21605;-77
2021/05/23 07:54:14;;;;;;;3.27;1.90;;;;;;;22.20;43.84;99376.97;1733535;83;21057;-79
2021/05/23 07:56:42;;;;;;;2.27;1.98;;;;;;;22.05;43.71;99378.38;1733452;83;21042;-79
2021/05/23 07:59:08;;;;;;;4.00;2.33;;;;;;;21.76;43.24;99377.47;1733411;83;21081;-79
2021/05/23 08:01:35;;;;;;;2.85;1.92;;;;;;;21.65;44.02;99377.11;1694772;83;21100;-78
2021/05/23 08:04:01;;;;;;;2.60;1.98;;;;;;;21.58;42.21;99368.96;1699035;84;21071;-78
2021/05/23 08:06:27;;;;;;;3.52;2.00;;;;;;;21.49;43.29;99375.45;1698980;84;21048;-79
2021/05/23 08:08:54;;;;;;;3.15;2.17;;;;;;;21.40;43.17;99375.55;1699040;84;21020;-79
2021/05/23 08:11:20;;;;;;;4.40;2.00;;;;;;;21.27;43.52;99380.77;1691856;84;21041;-79
2021/05/23 08:13:47;;;;;;;3.83;2.15;;;;;;;21.07;43.39;99387.20;1684997;85;21105;-78
2021/05/23 08:16:13;;;;;;;2.75;2.08;;;;;;;20.76;44.35;99396.27;1684999;85;21137;-79
2021/05/23 08:18:40;;;;;;;2.77;2.00;;;;;;;20.74;45.06;99385.71;1685022;85;21589;-80
2021/05/23 08:21:06;;;;;;;3.37;2.08;;;;;;;20.78;44.59;99393.72;1736941;82;21558;-80
2021/05/23 08:23:33;;;;;;;2.77;2.20;;;;;;;20.86;44.36;99391.98;1740985;82;21035;-79
2021/05/23 08:25:59;;;;;;;4.55;2.37;;;;;;;20.86;45.43;99403.55;1741083;82;21074;-80
2021/05/23 08:28:27;;;;;;;3.52;2.22;;;;;;;21.02;45.50;99399.02;1740921;82;21047;-79
2021/05/23 08:30:54;;;;;;;3.85;1.90;;;;;;;21.19;44.83;99402.36;1739175;82;21073;-79
2021/05/23 08:33:21;;;;;;;2.15;1.80;;;;;;;21.20;42.75;99406.23;1737410;82;21076;-79
2021/05/23 08:35:47;;;;;;;4.08;1.95;;;;;;;20.98;43.16;99409.30;1737278;82;21088;-79
2021/05/23 08:38:14;;;;;;;3.22;2.00;;;;;;;21.00;43.70;99408.63;1737571;82;22208;-79
2021/05/23 08:40:40;;;;;;;3.27;2.45;;;;;;;21.08;43.19;99404.48;1733060;82;21635;-79
2021/05/23 08:43:09;;;;;;;4.22;1.95;;;;;;;21.08;43.53;99413.08;1709269;84;21052;-80
2021/05/23 08:45:36;;;;;;;3.72;2.00;;;;;;;21.21;43.84;99413.77;1709111;84;21080;-79
2021/05/23 08:48:05;;;;;;;3.12;2.00;;;;;;;21.37;44.04;99408.70;1709097;84;21104;-79
2021/05/23 08:50:32;;;;;;;2.02;1.70;;;;;;;21.54;43.61;99415.55;1711662;82;21033;-79
2021/05/23 08:53:01;;;;;;;4.10;2.10;;;;;;;21.59;41.75;99406.44;1712264;82;21079;-79
2021/05/23 08:55:27;;;;;;;2.85;1.80;;;;;;;21.63;41.85;99408.25;1709124;84;21580;-78
2021/05/23 08:57:57;;;;;;;2.52;1.85;;;;;;;21.72;41.47;99403.07;1709089;84;21045;-78
2021/05/23 09:00:23;;;;;;;3.77;1.80;;;;;;;21.79;41.40;99400.97;1709188;84;21108;-79
2021/05/23 09:02:57;;;;;;;4.05;1.80;;;;;;;21.86;40.54;99407.27;1740786;82;21035;-79
2021/05/23 09:05:29;;;;;;;2.05;1.60;;;;;;;21.91;39.92;99404.84;1739889;82;21122;-79
2021/05/23 09:08:01;;;;;;;3.30;1.60;;;;;;;21.87;39.15;99403.04;1740913;82;21102;-78
2021/05/23 09:10:34;;;;;;;3.17;1.70;;;;;;;21.74;37.65;99391.62;1740851;82;21124;-78
2021/05/23 09:13:00;;;;;;;2.52;1.70;;;;;;;21.64;39.04;99393.78;1738167;82;21032;-79
2021/05/23 09:15:27;;;;;;;2.22;1.60;;;;;;;21.72;40.05;99390.95;1740103;82;21099;-79
2021/05/23 09:18:12;;;;;;;3.92;1.87;;;;;;;21.88;39.95;99392.60;1740977;82;21083;-78
2021/05/23 09:20:41;;;;;;;1.87;1.52;;;;;;;22.02;39.10;99393.58;1740963;82;21054;-79
2021/05/23 09:23:22;;;;;;;2.98;1.60;;;;;;;22.10;37.23;99396.13;1735464;82;21066;-78
2021/05/23 09:25:49;;;;;;;4.47;1.72;;;;;;;22.05;36.80;99394.53;1746879;82;21449;-78
2021/05/23 09:28:15;;;;;;;3.92;1.77;;;;;;;21.87;36.75;99393.63;1746965;82;21054;-78
2021/05/23 09:30:44;;;;;;;2.33;1.60;;;;;;;21.57;37.81;99392.85;1746812;82;21614;-79
2021/05/23 09:33:19;;;;;;;2.77;1.80;;;;;;;21.56;38.91;99400.09;1740634;82;21051;-79
2021/05/23 09:35:45;;;;;;;3.83;1.57;;;;;;;21.53;39.29;99395.05;1740968;82;21011;-78
2021/05/23 09:38:15;;;;;;;2.50;1.60;;;;;;;21.66;38.52;99398.96;1741102;82;21059;-78
2021/05/23 09:40:44;;;;;;;2.05;1.50;;;;;;;21.60;37.56;99396.53;1741309;82;21054;-79
2021/05/23 09:43:20;;;;;;;2.98;1.87;;;;;;;21.48;38.79;99386.70;1737469;82;21033;-78
2021/05/23 09:45:54;;;;;;;2.08;1.60;;;;;;;21.40;40.19;99387.64;1737156;82;21653;-79
2021/05/23 09:48:25;;;;;;;2.52;1.95;;;;;;;21.50;39.30;99389.23;1738992;82;21080;-78
2021/05/23 09:51:00;;;;;;;3.77;1.87;;;;;;;21.49;38.37;99392.94;1743797;82;21065;-78
2021/05/23 09:53:32;;;;;;;2.75;2.00;;;;;;;21.32;38.46;99395.83;1755801;80;21035;-79
2021/05/23 09:56:03;;;;;;;5.58;1.70;;;;;;;21.35;37.58;99391.41;1745646;82;21011;-77
2021/05/23 09:58:39;;;;;;;2.45;1.75;;;;;;;21.32;36.56;99389.11;1739426;82;21007;-77
2021/05/23 10:01:11;;;;;;;2.58;1.90;;;;;;;21.21;36.18;99385.54;1746868;82;21031;-77
2021/05/23 10:03:40;;;;;;;4.50;2.00;;;;;;;21.00;37.11;99384.92;1745724;82;21969;-77
2021/05/23 10:06:08;;;;;;;3.50;2.00;;;;;;;20.87;37.62;99389.59;1750910;82;21071;-78
2021/05/23 10:08:35;;;;;;;1.85;1.62;;;;;;;20.79;38.08;99391.86;1751457;82;21066;-78
2021/05/23 10:11:02;;;;;;;3.98;1.85;;;;;;;20.70;38.94;99392.93;1753578;81;21096;-77
2021/05/23 10:13:29;;;;;;;3.52;1.90;;;;;;;20.71;39.50;99408.89;1742815;80;21034;-76
2021/05/23 10:15:56;;;;;;;4.37;2.05;;;;;;;20.78;39.50;99395.55;1748662;81;21121;-77
2021/05/23 10:18:27;;;;;;;4.05;2.00;;;;;;;20.83;39.31;99401.73;1748706;82;21050;-78
2021/05/23 10:20:56;;;;;;;4.22;2.10;;;;;;;20.85;39.58;99403.74;1748831;82;21062;-77
2021/05/23 10:23:27;;;;;;;4.33;2.55;;;;;;;20.92;39.77;99404.66;1749079;82;21054;-77
2021/05/23 10:25:57;;;;;;;3.25;2.00;;;;;;;21.08;40.36;99405.83;1749191;82;21102;-77
2021/05/23 10:28:24;;;;;;;3.52;1.90;;;;;;;21.28;39.71;99402.09;1754968;80;21120;-66
2021/05/23 10:30:53;;;;;;;3.50;2.00;;;;;;;21.48;39.34;99395.30;1762079;81;21189;-67
2021/05/23 10:33:21;;;;;;;4.83;2.00;;;;;;;21.68;39.18;99386.16;1791169;80;21616;-67
2021/05/23 10:35:52;;;;;;;3.80;1.77;;;;;;;21.87;37.75;99392.27;1746994;78;65841;-71
2021/05/23 10:38:22;;;;;;;4.00;2.00;;;;;;;22.00;37.12;99392.92;1714104;84;21542;-74
2021/05/23 10:41:00;;;;;;;3.85;2.95;;;;;;;22.14;36.58;99395.77;1714257;84;21070;-74
2021/05/23 10:43:39;;;;;;;5.20;2.70;;;;;;;22.26;36.38;99395.55;1697759;84;22285;-74
2021/05/23 10:46:13;;;;;;;5.08;1.92;;;;;;;22.44;36.97;99391.61;1688934;84;21662;-74
2021/05/23 10:48:53;;;;;;;8.30;2.75;;;;;;;22.60;37.18;99385.94;1684136;85;21059;-74
2021/05/23 10:51:20;;;;;;;3.62;2.60;;;;;;;22.75;37.74;99395.28;1684316;85;21363;-74
2021/05/23 10:53:47;;;;;;;7.35;3.50;;;;;;;22.89;36.56;99393.00;1684125;85;21106;-74
2021/05/23 10:56:30;;;;;;;2.65;2.12;;;;;;;22.95;35.92;99400.80;1685146;84;21058;-74
2021/05/23 10:59:01;;;;;;;;;;;;;;;22.88;35.63;99399.94;1686686;85;21074;-73
2021/05/23 11:01:49;;;;;;;5.22;2.30;;;;;;;22.74;35.63;99397.13;1684165;85;20171;-73
2021/05/23 11:04:18;;;;;;;2.95;2.20;;;;;;;22.57;35.44;99389.01;1685667;84;21139;-74
2021/05/23 11:06:46;;;;;;;2.35;1.92;;;;;;;22.57;35.86;99387.66;1713945;83;21078;-73
2021/05/23 11:09:24;;;;;;;9.63;2.40;;;;;;;22.70;36.95;99378.34;1714314;83;21085;-73
2021/05/23 11:11:53;;;;;;;2.40;1.70;;;;;;;22.87;36.02;99376.17;1714328;83;21011;-73
2021/05/23 11:14:23;;;;;;;3.27;1.92;;;;;;;22.87;34.14;99374.82;1712750;84;21066;-73
2021/05/23 11:16:55;;;;;;;2.83;1.87;;;;;;;22.66;34.79;99385.16;1684070;85;21034;-73
2021/05/23 11:19:25;;;;;;;2.70;1.80;;;;;;;22.68;35.92;99383.61;1684431;84;21019;-73
2021/05/23 11:21:54;;;;;;;5.08;2.00;;;;;;;22.83;36.17;99376.25;1684097;85;21078;-73
2021/05/23 11:24:31;;;;;;;2.22;1.70;;;;;;;22.97;35.18;99383.06;1685369;84;21633;-73
2021/05/23 11:27:14;;;;;;;2.17;1.62;;;;;;;23.12;35.14;99388.34;1714170;84;21075;-73
2021/05/23 11:29:51;;;;;;;2.45;1.72;;;;;;;23.21;33.88;99391.23;1713870;83;21078;-73
2021/05/23 11:32:18;;;;;;;2.20;1.75;;;;;;;23.17;34.51;99383.22;1714087;84;21090;-75
2021/05/23 11:34:45;;;;;;;3.33;1.80;;;;;;;23.23;34.68;99387.83;1689532;84;21132;-72
2021/05/23 11:37:11;;;;;;;4.15;1.92;;;;;;;23.29;34.11;99386.17;1673599;85;21613;-74
2021/05/23 11:39:38;;;;;;;4.20;1.70;;;;;;;23.34;34.14;99384.56;1673844;85;21045;-72
2021/05/23 11:42:05;;;;;;;5.83;1.92;;;;;;;23.43;34.02;99382.53;1673730;86;21073;-73